Time;durP1;ratioP1;P1;durP2;ratioP2;P2;SDS_P1;SDS_P2;PMS_P1;PMS_P2;Temp;Humidity;BMP_temperature;BMP_pressure;BME280_temperature;BME280_humidity;BME280_pressure;Samples;Min_cycle;Max_cycle;Signal;HPM_P1;HPM_P2
2022/09/22 00:02:58;;;;;;;3.60;1.80;;;9.40;99.90;;;;;;10561328;28;20224;-84
2022/09/22 00:08:20;;;;;;;3.47;1.83;;;9.40;99.90;;;;;;10539415;28;20204;-88
2022/09/22 00:13:52;;;;;;;3.47;1.60;;;9.40;99.90;;;;;;10567719;28;20274;-87
2022/09/22 00:19:31;;;;;;;2.50;1.50;;;9.40;99.90;;;;;;10567334;28;20227;-88
2022/09/22 00:24:53;;;;;;;3.80;1.80;;;9.40;99.90;;;;;;10555414;28;20274;-87
2022/09/22 00:30:14;;;;;;;4.50;2.00;;;9.40;99.90;;;;;;10525507;28;20190;-89
2022/09/22 00:35:37;;;;;;;2.67;1.57;;;9.40;99.90;;;;;;10530675;28;20456;-89
2022/09/22 00:41:00;;;;;;;3.47;2.00;;;9.50;99.90;;;;;;10529517;28;20223;-89
2022/09/22 00:46:25;;;;;;;2.07;1.47;;;9.50;99.90;;;;;;10566942;28;20209;-88
2022/09/22 00:51:47;;;;;;;2.43;1.73;;;9.40;99.90;;;;;;10547207;28;20193;-87
2022/09/22 00:57:16;;;;;;;3.87;1.80;;;9.50;99.90;;;;;;10551999;28;20193;-80
2022/09/22 01:02:38;;;;;;;2.50;1.20;;;9.50;99.90;;;;;;10565661;28;20218;-89
2022/09/22 01:08:01;;;;;;;3.77;1.00;;;9.50;1.00;;;;;;10565830;28;20201;-89
2022/09/22 01:13:46;;;;;;;2.03;1.30;;;9.50;99.90;;;;;;10551172;28;20227;-90
2022/09/22 01:19:33;;;;;;;2.23;1.30;;;9.50;1.00;;;;;;10526263;28;20227;-89
2022/09/22 01:25:21;;;;;;;2.57;1.30;;;9.60;1.00;;;;;;10549752;28;20219;-89
2022/09/22 01:31:06;;;;;;;4.90;1.60;;;9.60;1.00;;;;;;10564805;28;20427;-89
2022/09/22 01:36:43;;;;;;;3.10;1.53;;;9.60;1.00;;;;;;10549928;28;20228;-89
2022/09/22 01:42:57;;;;;;;3.03;1.10;;;9.70;1.00;;;;;;10542139;28;20235;-90
2022/09/22 01:48:26;;;;;;;1.37;1.17;;;9.70;1.00;;;;;;10547541;28;20538;-89
2022/09/22 01:59:38;;;;;;;1.87;1.20;;;9.60;1.00;;;;;;10547156;28;20227;-88
2022/09/22 02:05:03;;;;;;;4.00;1.50;;;9.60;1.00;;;;;;10515440;28;20373;-89
2022/09/22 02:10:31;;;;;;;2.53;1.40;;;9.70;1.00;;;;;;10546647;28;20214;-81
2022/09/22 02:16:01;;;;;;;2.30;1.23;;;9.70;1.00;;;;;;10530098;28;20202;-89
2022/09/22 02:21:24;;;;;;;1.33;1.00;;;9.70;1.00;;;;;;10546245;28;20261;-80
2022/09/22 02:26:46;;;;;;;2.07;1.07;;;9.80;1.00;;;;;;10562474;28;20184;-89
2022/09/22 02:32:12;;;;;;;1.60;1.20;;;9.80;1.00;;;;;;10547728;28;20192;-89
2022/09/22 02:37:54;;;;;;;1.37;1.27;;;9.90;1.00;;;;;;10556563;28;20191;-90
2022/09/22 02:43:36;;;;;;;3.10;1.70;;;9.90;1.00;;;;;;10547900;28;20245;-90
2022/09/22 02:49:02;;;;;;;5.23;2.10;;;10.00;1.00;;;;;;10561956;28;20415;-86
2022/09/22 02:54:23;;;;;;;4.70;2.10;;;10.00;1.00;;;;;;10561565;28;20276;-86
2022/09/22 02:59:45;;;;;;;2.67;1.50;;;10.10;1.00;;;;;;10541318;28;20249;-84
2022/09/22 03:05:06;;;;;;;2.50;1.10;;;10.10;1.00;;;;;;10530268;28;20201;-85
2022/09/22 03:10:28;;;;;;;1.60;1.20;;;10.10;1.00;;;;;;10561186;28;20203;-85
2022/09/22 03:15:49;;;;;;;2.07;1.33;;;10.00;1.00;;;;;;10561220;28;20262;-88
2022/09/22 03:21:11;;;;;;;5.43;1.40;;;10.00;1.00;;;;;;10561098;28;20228;-87
2022/09/22 03:26:33;;;;;;;1.80;1.30;;;9.90;1.00;;;;;;10507593;28;20190;-85
2022/09/22 03:31:54;;;;;;;2.40;1.43;;;9.80;1.00;;;;;;10519754;28;20194;-87
2022/09/22 03:37:16;;;;;;;2.63;1.73;;;9.60;1.00;;;;;;10543629;28;20204;-83
2022/09/22 03:42:37;;;;;;;3.10;1.53;;;9.50;1.00;;;;;;10540780;28;20229;-86
2022/09/22 03:47:58;;;;;;;2.13;1.43;;;9.30;1.00;;;;;;10560419;28;20189;-81
2022/09/22 03:53:20;;;;;;;1.80;1.40;;;9.30;1.00;;;;;;10545828;28;20207;-89
2022/09/22 03:58:42;;;;;;;2.80;1.57;;;9.30;1.00;;;;;;10546370;28;20193;-89
2022/09/22 04:04:03;;;;;;;2.00;1.37;;;9.30;1.00;;;;;;10535095;28;20490;-86
2022/09/22 04:09:24;;;;;;;3.23;1.47;;;9.30;1.00;;;;;;10546074;28;20492;-88
2022/09/22 04:14:46;;;;;;;2.23;1.37;;;9.40;1.00;;;;;;10567432;28;20283;-82
2022/09/22 04:20:10;;;;;;;2.20;1.70;;;9.50;1.00;;;;;;10567781;28;20450;-88
2022/09/22 04:25:31;;;;;;;4.67;1.80;;;9.50;1.00;;;;;;10552726;28;20192;-88
2022/09/22 04:30:52;;;;;;;5.73;1.80;;;9.50;1.00;;;;;;10568051;28;20189;-89
2022/09/22 04:36:14;;;;;;;3.93;2.20;;;9.50;1.00;;;;;;10552661;28;20243;-88
2022/09/22 04:41:35;;;;;;;5.57;3.30;;;9.50;1.00;;;;;;10566846;28;20297;-89
2022/09/22 04:46:57;;;;;;;6.40;3.97;;;9.50;1.00;;;;;;10551967;28;20488;-86
2022/09/22 04:52:18;;;;;;;7.27;5.03;;;9.60;1.00;;;;;;10566597;28;20222;-87
2022/09/22 04:57:40;;;;;;;3.97;3.10;;;9.60;1.00;;;;;;10563311;28;20193;-88
2022/09/22 05:03:06;;;;;;;3.73;2.17;;;9.60;1.00;;;;;;10524003;28;20384;-84
2022/09/22 05:08:27;;;;;;;3.80;2.17;;;9.60;1.00;;;;;;10535829;28;20191;-88
2022/09/22 05:13:49;;;;;;;4.80;2.30;;;9.60;1.00;;;;;;10565929;28;20195;-89
2022/09/22 05:19:11;;;;;;;3.50;1.60;;;9.60;1.00;;;;;;10565977;28;20186;-90
2022/09/22 05:24:32;;;;;;;3.30;1.70;;;9.50;1.00;;;;;;10551855;28;20195;-91
2022/09/22 05:29:53;;;;;;;4.27;2.17;;;9.50;1.00;;;;;;10565581;28;20380;-90
2022/09/22 05:35:17;;;;;;;4.43;2.80;;;9.50;1.00;;;;;;10566549;28;20515;-91
2022/09/22 05:40:39;;;;;;;4.77;3.57;;;9.60;1.00;;;;;;10552745;28;20220;-81
2022/09/22 05:46:00;;;;;;;6.53;2.40;;;9.60;1.00;;;;;;10565459;28;20199;-90
2022/09/22 05:51:32;;;;;;;5.67;2.00;;;9.60;1.00;;;;;;10566639;28;20394;-90
2022/09/22 05:56:54;;;;;;;4.47;2.07;;;9.60;1.00;;;;;;10508525;28;20494;-91
2022/09/22 06:02:16;;;;;;;2.87;1.70;;;9.70;1.00;;;;;;10539445;28;20233;-91
2022/09/22 06:07:45;;;;;;;6.30;1.73;;;9.80;1.00;;;;;;10564756;28;20232;-91
2022/09/22 06:20:07;;;;;;;3.17;1.80;;;10.10;99.90;;;;;;10564699;28;20201;-90
2022/09/22 06:25:29;;;;;;;2.67;2.20;;;10.30;99.90;;;;;;10550209;28;20201;-90
2022/09/22 06:30:51;;;;;;;7.17;2.87;;;10.20;99.90;;;;;;10563610;28;20208;-91
2022/09/22 06:36:12;;;;;;;6.27;3.27;;;10.40;99.90;;;;;;10565424;28;20239;-88
2022/09/22 06:41:33;;;;;;;2.90;2.60;;;10.80;99.90;;;;;;10517840;28;20234;-93
2022/09/22 06:46:55;;;;;;;5.63;3.20;;;11.00;59.70;;;;;;10522086;28;20192;-91
2022/09/22 06:52:16;;;;;;;7.07;2.60;;;11.10;23.30;;;;;;10522138;28;20196;-91
2022/09/22 06:57:37;;;;;;;3.73;2.30;;;11.30;1.00;;;;;;10522977;28;20188;-80
2022/09/22 07:03:23;;;;;;;16.40;5.80;;;11.40;1.00;;;;;;10575407;28;20293;-81
2022/09/22 07:08:47;;;;;;;39.50;16.73;;;11.60;1.00;;;;;;10563633;28;20216;-89
2022/09/22 07:14:10;;;;;;;12.07;5.23;;;11.70;1.00;;;;;;10567726;28;20214;-96
2022/09/22 07:19:35;;;;;;;3.90;2.47;;;12.20;1.00;;;;;;10571432;28;20222;-79
2022/09/22 07:24:56;;;;;;;5.95;2.35;;;13.00;1.00;;;;;;10564959;28;20205;-95
2022/09/22 07:30:19;;;;;;;8.45;3.40;;;;;;;;;;10484384;28;20274;-85
2022/09/22 07:35:40;;;;;;;13.55;6.75;;;15.20;20.20;;;;;;10548983;28;20248;-88
2022/09/22 07:41:05;;;;;;;17.67;7.68;;;15.40;64.10;;;;;;10555161;28;20296;-84
2022/09/22 07:46:26;;;;;;;27.38;13.20;;;16.90;1.00;;;;;;10547499;28;20195;-84
2022/09/22 07:51:48;;;;;;;12.80;6.32;;;18.40;99.90;;;;;;10520391;28;20206;-84
2022/09/22 07:57:10;;;;;;;7.30;4.57;;;19.80;99.90;;;;;;10563249;28;20276;-83
2022/09/22 08:02:31;;;;;;;13.57;6.35;;;21.60;97.60;;;;;;10562735;28;20249;-84
2022/09/22 08:07:57;;;;;;;6.68;3.08;;;21.70;49.20;;;;;;10562875;28;20203;-86
2022/09/22 08:13:19;;;;;;;10.55;4.32;;;22.00;1.00;;;;;;10563291;28;20225;-82
2022/09/22 08:18:40;;;;;;;5.18;1.65;;;20.90;1.00;;;;;;10562872;28;20191;-79
2022/09/22 08:24:03;;;;;;;6.50;2.88;;;20.10;99.90;;;;;;10558815;28;20268;-85
2022/09/22 08:29:24;;;;;;;5.90;2.33;;;21.00;99.90;;;;;;10532376;28;20202;-84
2022/09/22 08:34:46;;;;;;;4.78;1.95;;;21.30;99.90;;;;;;10547095;28;20255;-83
2022/09/22 08:40:19;;;;;;;1.77;1.10;;;20.60;99.90;;;;;;10561954;28;20205;-79
2022/09/22 08:45:45;;;;;;;3.30;1.00;;;19.70;99.90;;;;;;10518945;28;20394;-85
2022/09/22 08:57:14;;;;;;;5.20;2.28;;;19.10;99.90;;;;;;10560670;28;20212;-92
2022/09/22 09:02:54;;;;;;;2.53;1.42;;;18.30;99.90;;;;;;10524191;28;20231;-80
2022/09/22 09:08:31;;;;;;;3.60;0.85;;;20.00;99.90;;;;;;10519632;28;20271;-86
2022/09/22 09:13:53;;;;;;;2.58;1.13;;;20.90;99.90;;;;;;10492733;28;20508;-87
2022/09/22 09:19:43;;;;;;;4.93;1.75;;;21.80;99.90;;;;;;10546141;28;20194;-83
2022/09/22 09:25:21;;;;;;;2.83;1.00;;;22.10;47.90;;;;;;10548021;28;20238;-86
2022/09/22 09:31:02;;;;;;;1.05;0.95;;;23.20;49.30;;;;;;10543438;28;20237;-83
2022/09/22 09:36:30;;;;;;;1.77;0.60;;;24.10;1.00;;;;;;10560365;28;20550;-86
2022/09/22 09:41:52;;;;;;;4.32;2.35;;;24.20;1.00;;;;;;10559273;28;20226;-86
2022/09/22 09:47:41;;;;;;;11.02;4.47;;;24.60;1.00;;;;;;10544371;28;20190;-83
2022/09/22 09:53:03;;;;;;;2.90;1.40;;;23.00;1.00;;;;;;10540455;28;20225;-82
2022/09/22 10:04:15;;;;;;;5.00;2.00;;;20.90;1.00;;;;;;10541315;28;20222;-85
2022/09/22 10:09:37;;;;;;;25.15;12.38;;;21.60;1.00;;;;;;10539054;28;20203;-82
2022/09/22 10:15:00;;;;;;;7.85;4.10;;;20.70;1.00;;;;;;10500817;28;20199;-85
2022/09/22 10:20:25;;;;;;;15.50;8.02;;;19.30;1.00;;;;;;10498663;28;20208;-87
2022/09/22 10:25:48;;;;;;;3.05;2.13;;;18.20;1.00;;;;;;10518211;28;20489;-89
2022/09/22 10:31:19;;;;;;;2.28;1.20;;;17.50;1.00;;;;;;10539924;28;20284;-82
2022/09/22 10:36:46;;;;;;;7.88;4.32;;;17.20;1.00;;;;;;10542422;28;20282;-86
2022/09/22 10:42:19;;;;;;;10.18;5.15;;;17.10;87.20;;;;;;10523002;28;20225;-83
2022/09/22 10:47:50;;;;;;;2.47;1.38;;;17.50;99.90;;;;;;10556716;28;20206;-83
2022/09/22 10:53:21;;;;;;;2.20;1.48;;;17.50;99.90;;;;;;10489878;28;20243;-86
2022/09/22 10:58:56;;;;;;;2.17;0.93;;;17.20;99.90;;;;;;10538524;28;20217;-86
2022/09/22 11:04:54;;;;;;;4.72;2.58;;;16.70;99.90;;;;;;10542365;28;20263;-83
2022/09/22 11:16:23;;;;;;;1.85;1.10;;;17.40;99.90;;;;;;10515725;28;20194;-83
2022/09/22 11:22:33;;;;;;;1.08;0.98;;;18.50;99.90;;;;;;10524474;28;20602;-82
2022/09/22 11:28:24;;;;;;;10.38;3.70;;;18.10;99.90;;;;;;10537663;28;20212;-85
2022/09/22 11:34:01;;;;;;;3.55;1.20;;;17.40;99.90;;;;;;10535926;28;20246;-82
2022/09/22 11:39:50;;;;;;;4.75;2.75;;;17.10;99.90;;;;;;10517615;28;20206;-82
2022/09/22 11:45:36;;;;;;;3.10;0.88;;;17.80;99.90;;;;;;10544839;28;20230;-82
2022/09/22 11:51:22;;;;;;;3.58;1.90;;;18.40;99.90;;;;;;10527250;28;20244;-81
2022/09/22 11:56:50;;;;;;;4.13;2.20;;;18.10;99.90;;;;;;10545212;28;20268;-83
2022/09/22 12:02:19;;;;;;;10.35;4.82;;;17.60;99.90;;;;;;10515250;28;20242;-81
2022/09/22 12:07:56;;;;;;;18.65;8.50;;;17.00;99.90;;;;;;10508055;28;20196;-80
2022/09/22 12:13:21;;;;;;;17.30;9.05;;;16.30;1.00;;;;;;10547069;28;20772;-82
2022/09/22 12:18:47;;;;;;;18.85;9.13;;;;;;;;;;10547181;28;20197;-82
2022/09/22 12:24:10;;;;;;;27.90;11.85;;;15.30;1.00;;;;;;10534120;28;20235;-83
2022/09/22 12:29:31;;;;;;;20.33;10.18;;;15.20;1.00;;;;;;10553374;28;20198;-82
2022/09/22 12:34:57;;;;;;;11.18;4.55;;;15.20;99.90;;;;;;10560094;28;20227;-82
2022/09/22 12:40:22;;;;;;;3.80;2.78;;;15.20;99.90;;;;;;10534156;28;20202;-80
2022/09/22 12:45:43;;;;;;;6.38;2.65;;;15.10;1.00;;;;;;10546540;28;20223;-80
2022/09/22 12:51:25;;;;;;;3.57;2.73;;;15.00;1.00;;;;;;10545494;28;20197;-80
2022/09/22 12:57:08;;;;;;;3.63;2.30;;;15.00;1.00;;;;;;10547847;28;20193;-81
2022/09/22 13:02:39;;;;;;;3.00;1.63;;;15.10;1.00;;;;;;10530922;28;20231;-80
2022/09/22 13:08:01;;;;;;;2.28;1.60;;;15.50;99.90;;;;;;10520483;28;20203;-80
2022/09/22 13:13:28;;;;;;;1.70;1.00;;;15.50;1.00;;;;;;10503140;28;20212;-79
2022/09/22 13:18:55;;;;;;;3.85;0.82;;;15.30;1.00;;;;;;10507087;28;20184;-79
2022/09/22 13:24:19;;;;;;;6.97;4.47;;;15.20;1.00;;;;;;10531693;28;20229;-81
2022/09/22 13:29:56;;;;;;;9.00;7.03;;;14.80;99.90;;;;;;10542041;28;20504;-83
2022/09/22 13:35:30;;;;;;;4.03;3.37;;;14.40;99.90;;;;;;10518180;28;20256;-83
2022/09/22 13:40:52;;;;;;;5.00;3.63;;;14.30;1.00;;;;;;10502760;28;20541;-80
2022/09/22 13:46:23;;;;;;;12.35;5.40;;;14.20;99.90;;;;;;10517040;28;20209;-82
2022/09/22 13:51:54;;;;;;;4.55;3.00;;;14.20;99.90;;;;;;10531483;28;20394;-83
2022/09/22 13:57:36;;;;;;;4.40;2.67;;;14.20;99.90;;;;;;10558348;28;20199;-83
2022/09/22 14:03:01;;;;;;;4.68;3.15;;;14.20;99.90;;;;;;10543418;28;20223;-79
2022/09/22 14:08:30;;;;;;;6.07;4.10;;;14.40;18.30;;;;;;10530305;28;20284;-79
2022/09/22 14:13:57;;;;;;;5.47;2.85;;;14.40;1.00;;;;;;10543077;28;20386;-81
2022/09/22 14:19:28;;;;;;;6.13;1.60;;;14.60;1.00;;;;;;10557287;28;20496;-83
2022/09/22 14:24:54;;;;;;;5.53;3.20;;;14.90;1.00;;;;;;10542852;28;20575;-81
2022/09/22 14:30:17;;;;;;;1.65;1.55;;;15.10;1.00;;;;;;10536484;28;20197;-82
2022/09/22 14:35:40;;;;;;;1.70;1.10;;;15.30;1.00;;;;;;10500064;28;20421;-81
2022/09/22 14:41:01;;;;;;;1.95;1.60;;;15.30;99.90;;;;;;10554971;28;20258;-82
2022/09/22 14:46:40;;;;;;;1.85;1.10;;;15.20;1.00;;;;;;10542133;28;20205;-82
2022/09/22 14:52:14;;;;;;;2.05;1.50;;;15.20;99.90;;;;;;10514026;28;20203;-81
2022/09/22 14:57:42;;;;;;;3.47;2.35;;;15.20;3.30;;;;;;10538286;28;20206;-81
2022/09/22 15:03:28;;;;;;;9.37;4.07;;;15.10;1.00;;;;;;10519438;28;20238;-87
2022/09/22 15:08:51;;;;;;;8.65;4.70;;;14.90;1.00;;;;;;10540076;28;20250;-83
2022/09/22 15:14:43;;;;;;;6.63;4.65;;;14.70;99.90;;;;;;10563141;28;20225;-83
2022/09/22 15:20:05;;;;;;;8.83;4.90;;;14.60;1.00;;;;;;10506609;28;20252;-83
2022/09/22 15:25:27;;;;;;;11.60;6.60;;;14.50;1.00;;;;;;10534028;28;20262;-83
2022/09/22 15:30:50;;;;;;;9.00;5.73;;;14.40;99.90;;;;;;10542382;28;20197;-82
2022/09/22 15:36:14;;;;;;;8.48;5.95;;;14.40;1.00;;;;;;10557466;28;20229;-82
2022/09/22 15:41:37;;;;;;;12.30;8.23;;;14.40;1.00;;;;;;10548243;28;20214;-82
2022/09/22 15:47:00;;;;;;;11.05;6.50;;;14.30;1.00;;;;;;10569745;28;20194;-83
2022/09/22 15:52:21;;;;;;;9.10;6.53;;;14.30;1.00;;;;;;10566156;28;20208;-82
2022/09/22 15:57:46;;;;;;;12.37;8.53;;;14.10;1.00;;;;;;10547029;28;20203;-83
2022/09/22 16:03:21;;;;;;;9.93;7.07;;;14.10;99.90;;;;;;10561790;28;20218;-82
2022/09/22 16:08:45;;;;;;;8.57;5.57;;;14.10;99.90;;;;;;10550862;28;20211;-82
2022/09/22 16:14:06;;;;;;;10.80;6.50;;;14.00;99.90;;;;;;10553596;28;20519;-82
2022/09/22 16:19:30;;;;;;;13.77;8.57;;;13.90;99.90;;;;;;10553488;28;20208;-82
2022/09/22 16:24:51;;;;;;;12.30;7.80;;;13.80;1.00;;;;;;10542098;28;20234;-82
2022/09/22 16:30:13;;;;;;;11.50;7.47;;;;;;;;;;10525445;28;20491;-82
2022/09/22 16:35:35;;;;;;;12.50;7.33;;;;;;;;;;10509565;28;20233;-84
2022/09/22 16:41:15;;;;;;;11.40;7.20;;;;;;;;;;10551267;28;20197;-83
2022/09/22 16:46:37;;;;;;;14.83;7.33;;;;;;;;;;10552314;28;20197;-82
2022/09/22 16:51:59;;;;;;;11.63;8.43;;;;;;;;;;10552202;28;20210;-83
2022/09/22 16:57:21;;;;;;;18.23;11.43;;;;;;;;;;10551642;28;20201;-83
2022/09/22 17:02:45;;;;;;;24.93;16.70;;;13.00;99.90;;;;;;10551270;28;20231;-83
2022/09/22 17:08:09;;;;;;;28.90;18.03;;;13.10;1.00;;;;;;10551205;28;20200;-84
2022/09/22 17:13:35;;;;;;;28.63;19.30;;;12.50;1.00;;;;;;10553531;28;20285;-83
2022/09/22 17:19:15;;;;;;;30.60;19.63;;;13.10;1.00;;;;;;10576337;28;20208;-81
2022/09/22 17:24:59;;;;;;;34.47;21.03;;;12.30;1.00;;;;;;10584632;28;20209;-81
2022/09/22 17:30:57;;;;;;;75.27;37.77;;;;;;;;;;10578990;28;20190;-82
2022/09/22 17:37:13;;;;;;;75.70;37.47;;;;;;;;;;10568475;28;20246;-82
2022/09/22 17:43:23;;;;;;;51.27;29.17;;;;;;;;;;10551018;28;20223;-80
2022/09/22 17:56:14;;;;;;;21.47;12.33;;;;;;;;;;11269028;22;20233;-79
2022/09/22 18:22:48;;;;;;;20.63;15.47;;;;;;;;;;11127770;22;20244;-82
2022/09/22 18:28:23;;;;;;;21.43;15.40;;;;;;;;;;10557541;28;20377;-81
2022/09/22 18:34:51;;;;;;;21.60;15.53;;;;;;;;;;10584897;28;20545;-80
2022/09/22 19:13:09;;;;;;;28.13;17.63;;;;;;;;;;10896821;22;20231;-82
2022/09/22 19:19:13;;;;;;;29.07;17.93;;;;;;;;;;10788144;22;20263;-81
2022/09/22 19:44:32;;;;;;;41.03;25.13;;;9.50;1.00;;;;;;10422399;28;20245;-81
2022/09/22 19:50:29;;;;;;;41.40;23.27;;;;;;;;;;9937287;23;15095563;-80
2022/09/22 19:57:28;;;;;;;43.50;26.80;;;9.70;99.90;;;;;;10374216;28;20217;-80
2022/09/22 20:23:10;;;;;;;87.37;49.03;;;9.30;99.90;;;;;;11077269;23;20236;-82
2022/09/22 20:28:33;;;;;;;79.40;45.93;;;;;;;;;;10350865;28;20379;-82
2022/09/22 20:33:54;;;;;;;76.03;42.90;;;9.20;99.90;;;;;;10322531;28;20213;-83
2022/09/22 20:39:16;;;;;;;64.90;40.93;;;9.10;99.90;;;;;;10353949;28;20205;-81
2022/09/22 20:44:38;;;;;;;65.37;39.13;;;;;;;;;;10330120;28;20246;-82
2022/09/22 20:49:59;;;;;;;59.37;33.87;;;;;;;;;;10330577;28;20208;-82
2022/09/22 20:55:21;;;;;;;59.00;31.53;;;;;;;;;;10330233;28;20212;-81
2022/09/22 21:00:47;;;;;;;41.27;24.87;;;8.90;99.90;;;;;;10343461;28;20207;-81
2022/09/22 21:06:10;;;;;;;42.03;23.30;;;;;;;;;;10329182;28;20239;-82
2022/09/22 21:11:31;;;;;;;42.37;21.83;;;;;;;;;;10354962;28;20205;-82
2022/09/22 21:16:53;;;;;;;42.90;24.43;;;;;;;;;;10343153;28;20216;-82
2022/09/22 21:22:15;;;;;;;49.13;27.07;;;;;;;;;;10329686;28;20228;-81
2022/09/22 21:34:22;;;;;;;45.47;23.90;;;;;;;;;;10361506;28;20228;-82
2022/09/22 21:39:44;;;;;;;45.27;27.07;;;;;;;;;;10318472;28;20204;-82
2022/09/22 21:45:08;;;;;;;42.90;24.23;;;8.20;99.90;;;;;;10328189;28;20247;-81
2022/09/22 21:50:30;;;;;;;52.07;27.67;;;;;;;;;;10344379;28;20563;-82
2022/09/22 21:55:58;;;;;;;49.33;27.43;;;;;;;;;;10327641;28;20212;-82
2022/09/22 22:01:45;;;;;;;38.30;21.80;;;8.20;99.90;;;;;;10340967;28;20206;-81
2022/09/22 22:12:28;;;;;;;41.37;22.20;;;;;;;;;;10384011;28;20215;-81
2022/09/22 22:17:50;;;;;;;30.40;17.67;;;;;;;;;;10383698;28;20224;-82
2022/09/22 22:23:11;;;;;;;26.97;12.87;;;;;;;;;;10392457;28;20236;-81
2022/09/22 22:28:33;;;;;;;26.50;14.13;;;;;;;;;;10379407;28;20518;-81
2022/09/22 22:33:55;;;;;;;41.47;23.50;;;;;;;;;;10345645;28;20211;-81
2022/09/22 22:39:17;;;;;;;45.27;26.13;;;;;;;;;;10327645;28;20286;-81
2022/09/22 22:44:38;;;;;;;47.47;25.40;;;;;;;;;;10328804;28;20390;-81
2022/09/22 22:50:00;;;;;;;42.47;22.50;;;;;;;;;;10363402;28;20376;-81
2022/09/22 22:55:21;;;;;;;40.50;22.63;;;;;;;;;;10365507;28;20207;-81
2022/09/22 23:00:43;;;;;;;41.23;22.83;;;;;;;;;;10366228;28;20202;-83
2022/09/22 23:06:05;;;;;;;36.30;18.27;;;;;;;;;;10382168;28;20229;-83
2022/09/22 23:11:29;;;;;;;40.70;21.40;;;7.90;99.90;;;;;;10365720;28;20226;-84
2022/09/22 23:16:50;;;;;;;31.40;18.73;;;;;;;;;;10337757;28;20273;-81
2022/09/22 23:22:11;;;;;;;42.70;23.27;;;7.60;99.90;;;;;;10342366;28;20553;-83
2022/09/22 23:27:33;;;;;;;46.83;23.27;;;7.40;99.90;;;;;;10354872;28;20242;-82
2022/09/22 23:32:55;;;;;;;36.50;21.23;;;7.30;99.90;;;;;;10349376;28;20251;-83
2022/09/22 23:38:16;;;;;;;43.97;22.47;;;7.50;99.90;;;;;;10364742;28;20205;-83
2022/09/22 23:43:37;;;;;;;31.70;17.70;;;7.30;99.90;;;;;;10353015;28;20428;-83
2022/09/22 23:48:58;;;;;;;40.27;21.10;;;7.10;99.90;;;;;;10349354;28;20209;-83
2022/09/22 23:54:20;;;;;;;32.50;18.03;;;7.00;99.90;;;;;;10342705;28;20205;-84
2022/09/22 23:59:41;;;;;;;23.57;12.60;;;7.00;99.90;;;;;;10367233;28;20228;-82
